Home   Weather   India   Hyderabad   Past weeks
Flag for India

Past Weather in Hyderabad, Telangana, India — Yesterday and Last 2 Weeks

Currently: 75 °F. Clear. (Weather station: Hyderabad Airport, India). See more current weather

Past Weather in Hyderabad — Graph

°F

Hyderabad Temperature Yesterday

Maximum temperature yesterday: 86 °F (at 1:00 pm)
Minimum temperature yesterday: 59 °F (at 7:30 am)
Average temperature yesterday: 80 °F

High & Low Weather Summary for the Past Weeks

 TemperatureHumidityPressure
High88 °F (Jan 15, 2:00 pm)94% (Jan 18, 7:30 am)30.15 "Hg (Jan 18, 7:30 am)
Low57 °F (Jan 22, 7:00 am)22% (Jan 26, 12:00 pm)29.89 "Hg (Jan 15, 3:30 pm)
Average78 °F46%30.01 "Hg
* Reported Jan 14 9:30 pm — Jan 29 9:30 pm, Hyderabad. Weather by CustomWeather, © 2023

Note: Actual official high and low records may vary slightly from our data, if they occured in-between our weather recording intervals... More about our weather records

Hyderabad Weather History for the Previous 24 Hours

Scroll right to see more
 ConditionsComfort  
Time TempWeatherWind HumidityBarometerVisibility
9:30 pm
Sun, Jan 29
75 °FClear.3 mph57%30.01 "Hg4 mi
9:00 pm75 °FClear.3 mph57%30.01 "Hg4 mi
8:30 pm75 °FClear.3 mph54%30.01 "Hg4 mi
7:30 pm75 °FMild.6 mph50%29.95 "Hg4 mi
7:00 pm77 °FClear.6 mph47%29.95 "Hg4 mi
6:30 pm77 °FClear.9 mph47%29.95 "Hg4 mi
6:00 pm79 °FClear.7 mph42%29.92 "Hg4 mi
5:30 pm79 °FClear.12 mph45%29.89 "Hg4 mi
5:00 pm82 °FClear.7 mph42%29.89 "Hg4 mi
4:30 pm81 °FWarm.12 mph42%29.89 "Hg4 mi
4:00 pm82 °FClear.13 mph40%29.89 "Hg4 mi
3:30 pm82 °FClear.13 mph40%29.89 "Hg4 mi
3:00 pm84 °FClear.8 mph37%29.89 "Hg4 mi
2:30 pm84 °FClear.12 mph37%29.89 "Hg4 mi
2:00 pm84 °FClear.8 mph35%29.89 "Hg4 mi
1:30 pm84 °FClear.9 mph33%29.92 "Hg4 mi
1:00 pm84 °FClear.12 mph35%29.95 "Hg4 mi
12:30 pm82 °FClear.9 mph35%29.95 "Hg4 mi
11:30 am82 °FClear.7 mph37%30.01 "Hg4 mi
11:00 am82 °FClear.8 mph37%30.01 "Hg4 mi
10:30 am79 °FClear.9 mph42%30.04 "Hg4 mi
10:00 am79 °FClear.7 mph42%30.04 "Hg4 mi
9:30 am77 °FHaze.7 mph42%30.04 "Hg3 mi
9:00 am77 °FHaze.5 mph44%30.04 "Hg3 mi
8:30 am73 °FFog.5 mph53%30.04 "Hg2 mi
8:00 am66 °FFog.No wind73%30.01 "Hg2 mi
7:00 am59 °FFog.No wind88%29.98 "Hg1 mi
Weather by CustomWeather, © 2023

See weather overview